sensor_id;sensor_type;location;lat;lon;timestamp;temperature;humidity
4922;DHT22;16625;53.624;10.106;2024-01-11T00:01:09;-1.90;1.00
4922;DHT22;16625;53.624;10.106;2024-01-11T00:03:37;-1.80;99.90
4922;DHT22;16625;53.624;10.106;2024-01-11T00:06:04;-1.90;99.90
4922;DHT22;16625;53.624;10.106;2024-01-11T00:08:32;-1.90;1.00
4922;DHT22;16625;53.624;10.106;2024-01-11T00:10:59;-1.90;1.00
4922;DHT22;16625;53.624;10.106;2024-01-11T00:13:26;-1.90;99.90
4922;DHT22;16625;53.624;10.106;2024-01-11T00:15:53;-1.90;1.00
4922;DHT22;16625;53.624;10.106;2024-01-11T00:18:20;-1.90;1.00
4922;DHT22;16625;53.624;10.106;2024-01-11T00:20:46;-1.90;65.60
4922;DHT22;16625;53.624;10.106;2024-01-11T00:23:13;-1.90;99.90
4922;DHT22;16625;53.624;10.106;2024-01-11T00:25:42;-1.20;1.00
4922;DHT22;16625;53.624;10.106;2024-01-11T00:28:12;-1.80;18.60
4922;DHT22;16625;53.624;10.106;2024-01-11T00:30:39;-1.90;1.00
4922;DHT22;16625;53.624;10.106;2024-01-11T00:33:06;-1.10;99.90
4922;DHT22;16625;53.624;10.106;2024-01-11T00:35:34;-1.90;99.90
4922;DHT22;16625;53.624;10.106;2024-01-11T00:38:01;-1.80;99.90
4922;DHT22;16625;53.624;10.106;2024-01-11T00:40:29;-1.80;99.90
4922;DHT22;16625;53.624;10.106;2024-01-11T00:42:57;-0.60;99.90
4922;DHT22;16625;53.624;10.106;2024-01-11T00:45:24;-1.80;99.90
4922;DHT22;16625;53.624;10.106;2024-01-11T00:47:51;-1.70;99.90
4922;DHT22;16625;53.624;10.106;2024-01-11T00:50:20;-1.70;99.90
4922;DHT22;16625;53.624;10.106;2024-01-11T00:52:46;-1.70;1.00
4922;DHT22;16625;53.624;10.106;2024-01-11T00:55:14;-1.70;99.90
4922;DHT22;16625;53.624;10.106;2024-01-11T00:57:41;-1.80;99.90
4922;DHT22;16625;53.624;10.106;2024-01-11T01:00:12;-1.80;99.90
4922;DHT22;16625;53.624;10.106;2024-01-11T01:02:40;-1.90;99.90
4922;DHT22;16625;53.624;10.106;2024-01-11T01:05:08;-1.90;1.00
4922;DHT22;16625;53.624;10.106;2024-01-11T01:07:35;-1.90;1.00
4922;DHT22;16625;53.624;10.106;2024-01-11T01:10:02;-1.90;99.90
4922;DHT22;16625;53.624;10.106;2024-01-11T01:12:29;-1.80;99.90
4922;DHT22;16625;53.624;10.106;2024-01-11T01:14:56;-1.90;99.90
4922;DHT22;16625;53.624;10.106;2024-01-11T01:17:24;-1.90;99.90
4922;DHT22;16625;53.624;10.106;2024-01-11T01:19:51;-1.90;1.00
4922;DHT22;16625;53.624;10.106;2024-01-11T01:22:18;-1.90;1.00
4922;DHT22;16625;53.624;10.106;2024-01-11T01:24:45;-2.00;1.00
4922;DHT22;16625;53.624;10.106;2024-01-11T01:27:12;-2.00;1.00
4922;DHT22;16625;53.624;10.106;2024-01-11T01:29:39;-2.00;1.00
4922;DHT22;16625;53.624;10.106;2024-01-11T01:32:06;-2.00;1.00
4922;DHT22;16625;53.624;10.106;2024-01-11T01:34:34;-2.00;1.00
4922;DHT22;16625;53.624;10.106;2024-01-11T01:37:01;-2.00;1.00
4922;DHT22;16625;53.624;10.106;2024-01-11T01:39:28;-2.10;1.00
4922;DHT22;16625;53.624;10.106;2024-01-11T01:41:55;-2.00;50.10
4922;DHT22;16625;53.624;10.106;2024-01-11T01:44:22;-2.10;91.80
4922;DHT22;16625;53.624;10.106;2024-01-11T01:46:51;-2.10;99.90
4922;DHT22;16625;53.624;10.106;2024-01-11T01:49:18;-2.00;99.90
4922;DHT22;16625;53.624;10.106;2024-01-11T01:51:49;-2.00;99.90
4922;DHT22;16625;53.624;10.106;2024-01-11T01:54:18;-1.90;99.90
4922;DHT22;16625;53.624;10.106;2024-01-11T01:56:48;-2.00;99.90
4922;DHT22;16625;53.624;10.106;2024-01-11T01:59:16;-2.00;99.90
4922;DHT22;16625;53.624;10.106;2024-01-11T02:01:43;-2.00;99.90
4922;DHT22;16625;53.624;10.106;2024-01-11T02:04:10;-1.90;99.90
4922;DHT22;16625;53.624;10.106;2024-01-11T02:06:37;-1.90;99.90
4922;DHT22;16625;53.624;10.106;2024-01-11T02:09:06;-2.00;99.90
4922;DHT22;16625;53.624;10.106;2024-01-11T02:11:34;-2.10;99.90
4922;DHT22;16625;53.624;10.106;2024-01-11T02:14:02;-2.10;99.90
4922;DHT22;16625;53.624;10.106;2024-01-11T02:16:30;-2.10;99.90
4922;DHT22;16625;53.624;10.106;2024-01-11T02:18:57;-1.50;99.90
4922;DHT22;16625;53.624;10.106;2024-01-11T02:21:26;-2.10;99.90
4922;DHT22;16625;53.624;10.106;2024-01-11T02:24:04;-2.10;99.90
4922;DHT22;16625;53.624;10.106;2024-01-11T02:26:32;-2.10;99.90
4922;DHT22;16625;53.624;10.106;2024-01-11T02:29:04;-2.10;99.90
4922;DHT22;16625;53.624;10.106;2024-01-11T02:31:31;-2.10;99.90
4922;DHT22;16625;53.624;10.106;2024-01-11T02:33:58;-2.10;99.90
4922;DHT22;16625;53.624;10.106;2024-01-11T02:36:25;-2.00;99.90
4922;DHT22;16625;53.624;10.106;2024-01-11T02:38:53;-2.00;99.90
4922;DHT22;16625;53.624;10.106;2024-01-11T02:41:24;-2.00;99.90
4922;DHT22;16625;53.624;10.106;2024-01-11T02:43:52;-2.00;99.90
4922;DHT22;16625;53.624;10.106;2024-01-11T02:46:20;-1.90;99.90
4922;DHT22;16625;53.624;10.106;2024-01-11T02:48:47;-1.90;99.90
4922;DHT22;16625;53.624;10.106;2024-01-11T02:51:14;-2.00;99.90
4922;DHT22;16625;53.624;10.106;2024-01-11T02:53:41;-1.80;99.90
4922;DHT22;16625;53.624;10.106;2024-01-11T02:56:08;-1.90;99.90
4922;DHT22;16625;53.624;10.106;2024-01-11T02:58:36;-2.00;99.90
4922;DHT22;16625;53.624;10.106;2024-01-11T03:01:03;-1.90;99.90
4922;DHT22;16625;53.624;10.106;2024-01-11T03:03:30;-1.90;99.90
4922;DHT22;16625;53.624;10.106;2024-01-11T03:05:57;-2.00;99.90
4922;DHT22;16625;53.624;10.106;2024-01-11T03:08:26;-0.80;99.90
4922;DHT22;16625;53.624;10.106;2024-01-11T03:10:53;-2.00;99.90
4922;DHT22;16625;53.624;10.106;2024-01-11T03:13:20;-1.90;99.90
4922;DHT22;16625;53.624;10.106;2024-01-11T03:15:49;-1.90;99.90
4922;DHT22;16625;53.624;10.106;2024-01-11T03:18:16;-1.90;99.90
4922;DHT22;16625;53.624;10.106;2024-01-11T03:20:42;-1.90;99.90
4922;DHT22;16625;53.624;10.106;2024-01-11T03:23:09;-1.50;99.90
4922;DHT22;16625;53.624;10.106;2024-01-11T03:25:37;-1.90;99.90
4922;DHT22;16625;53.624;10.106;2024-01-11T03:28:05;-1.90;99.90
4922;DHT22;16625;53.624;10.106;2024-01-11T03:30:32;-1.80;99.90
4922;DHT22;16625;53.624;10.106;2024-01-11T03:33:00;-1.90;99.90
4922;DHT22;16625;53.624;10.106;2024-01-11T03:35:27;-1.90;99.90
4922;DHT22;16625;53.624;10.106;2024-01-11T03:37:54;-1.80;99.90
4922;DHT22;16625;53.624;10.106;2024-01-11T03:40:21;-1.80;99.90
4922;DHT22;16625;53.624;10.106;2024-01-11T03:42:48;-1.80;99.90
4922;DHT22;16625;53.624;10.106;2024-01-11T03:45:18;-1.80;99.90
4922;DHT22;16625;53.624;10.106;2024-01-11T03:47:45;-1.80;99.90
4922;DHT22;16625;53.624;10.106;2024-01-11T03:50:13;-0.50;99.90
4922;DHT22;16625;53.624;10.106;2024-01-11T03:52:42;-1.60;99.90
4922;DHT22;16625;53.624;10.106;2024-01-11T03:55:09;-1.70;99.90
4922;DHT22;16625;53.624;10.106;2024-01-11T03:57:36;-1.70;99.90
4922;DHT22;16625;53.624;10.106;2024-01-11T04:00:04;-1.70;99.90
4922;DHT22;16625;53.624;10.106;2024-01-11T04:02:31;-1.70;99.90
4922;DHT22;16625;53.624;10.106;2024-01-11T04:04:58;-1.70;99.90
4922;DHT22;16625;53.624;10.106;2024-01-11T04:07:27;-1.50;99.90
4922;DHT22;16625;53.624;10.106;2024-01-11T04:09:54;-1.70;99.90
4922;DHT22;16625;53.624;10.106;2024-01-11T04:12:21;-1.70;99.90
4922;DHT22;16625;53.624;10.106;2024-01-11T04:14:48;-1.80;99.90
4922;DHT22;16625;53.624;10.106;2024-01-11T04:17:15;-1.80;99.90
4922;DHT22;16625;53.624;10.106;2024-01-11T04:19:42;-0.50;99.90
4922;DHT22;16625;53.624;10.106;2024-01-11T04:22:09;-1.50;99.90
4922;DHT22;16625;53.624;10.106;2024-01-11T04:24:38;-1.70;99.90
4922;DHT22;16625;53.624;10.106;2024-01-11T04:27:05;-1.80;99.90
4922;DHT22;16625;53.624;10.106;2024-01-11T04:29:32;-1.80;99.90
4922;DHT22;16625;53.624;10.106;2024-01-11T04:31:59;-1.70;99.90
4922;DHT22;16625;53.624;10.106;2024-01-11T04:34:28;-1.80;99.90
4922;DHT22;16625;53.624;10.106;2024-01-11T04:36:55;-1.80;99.90
4922;DHT22;16625;53.624;10.106;2024-01-11T04:39:21;-1.80;99.90
4922;DHT22;16625;53.624;10.106;2024-01-11T04:41:50;-1.80;99.90
4922;DHT22;16625;53.624;10.106;2024-01-11T04:44:17;-1.80;93.20
4922;DHT22;16625;53.624;10.106;2024-01-11T04:46:44;-1.80;99.90
4922;DHT22;16625;53.624;10.106;2024-01-11T04:49:11;-1.90;84.00
4922;DHT22;16625;53.624;10.106;2024-01-11T04:51:38;-1.80;99.90
4922;DHT22;16625;53.624;10.106;2024-01-11T04:54:05;-1.80;99.90
4922;DHT22;16625;53.624;10.106;2024-01-11T04:56:32;-1.80;1.00
4922;DHT22;16625;53.624;10.106;2024-01-11T04:59:00;-1.90;1.00
4922;DHT22;16625;53.624;10.106;2024-01-11T05:01:27;-1.90;1.00
4922;DHT22;16625;53.624;10.106;2024-01-11T05:03:54;-1.90;1.00
4922;DHT22;16625;53.624;10.106;2024-01-11T05:06:22;-1.90;1.00
4922;DHT22;16625;53.624;10.106;2024-01-11T05:08:51;-1.90;1.00
4922;DHT22;16625;53.624;10.106;2024-01-11T05:11:19;-1.90;1.00
4922;DHT22;16625;53.624;10.106;2024-01-11T05:13:46;-1.90;1.00
4922;DHT22;16625;53.624;10.106;2024-01-11T05:16:19;-1.90;1.00
4922;DHT22;16625;53.624;10.106;2024-01-11T05:18:47;-1.90;1.00
4922;DHT22;16625;53.624;10.106;2024-01-11T05:21:14;-1.80;1.00
4922;DHT22;16625;53.624;10.106;2024-01-11T05:23:42;-1.80;1.00
4922;DHT22;16625;53.624;10.106;2024-01-11T05:26:12;-1.80;1.00
4922;DHT22;16625;53.624;10.106;2024-01-11T05:28:39;-1.80;1.00
4922;DHT22;16625;53.624;10.106;2024-01-11T05:31:07;-1.80;1.00
4922;DHT22;16625;53.624;10.106;2024-01-11T05:33:36;-1.80;1.00
4922;DHT22;16625;53.624;10.106;2024-01-11T05:36:04;-1.70;1.00
4922;DHT22;16625;53.624;10.106;2024-01-11T05:38:31;-1.70;1.00
4922;DHT22;16625;53.624;10.106;2024-01-11T05:40:59;-1.70;1.00
4922;DHT22;16625;53.624;10.106;2024-01-11T05:43:26;-1.80;1.00
4922;DHT22;16625;53.624;10.106;2024-01-11T05:45:54;-1.80;1.00
4922;DHT22;16625;53.624;10.106;2024-01-11T05:48:21;-1.80;41.00
4922;DHT22;16625;53.624;10.106;2024-01-11T05:50:50;-1.80;97.30
4922;DHT22;16625;53.624;10.106;2024-01-11T05:53:20;-1.80;99.90
4922;DHT22;16625;53.624;10.106;2024-01-11T05:55:47;-1.80;99.90
4922;DHT22;16625;53.624;10.106;2024-01-11T05:58:15;-1.90;99.90
4922;DHT22;16625;53.624;10.106;2024-01-11T06:00:42;-1.90;99.90
4922;DHT22;16625;53.624;10.106;2024-01-11T06:03:11;-1.90;99.90
4922;DHT22;16625;53.624;10.106;2024-01-11T06:05:41;-1.90;99.90
4922;DHT22;16625;53.624;10.106;2024-01-11T06:08:09;-1.90;99.90
4922;DHT22;16625;53.624;10.106;2024-01-11T06:10:36;-1.90;99.90
4922;DHT22;16625;53.624;10.106;2024-01-11T06:13:03;-1.90;99.90
4922;DHT22;16625;53.624;10.106;2024-01-11T06:15:30;-1.90;99.90
4922;DHT22;16625;53.624;10.106;2024-01-11T06:17:57;-1.90;99.90
4922;DHT22;16625;53.624;10.106;2024-01-11T06:20:24;-1.80;99.90
4922;DHT22;16625;53.624;10.106;2024-01-11T06:22:51;-1.80;99.90
4922;DHT22;16625;53.624;10.106;2024-01-11T06:25:19;-1.80;99.90
4922;DHT22;16625;53.624;10.106;2024-01-11T06:27:47;-0.70;99.90
4922;DHT22;16625;53.624;10.106;2024-01-11T06:30:15;-1.80;99.90
4922;DHT22;16625;53.624;10.106;2024-01-11T06:32:41;-1.70;99.90
4922;DHT22;16625;53.624;10.106;2024-01-11T06:35:08;-1.80;99.90
4922;DHT22;16625;53.624;10.106;2024-01-11T06:37:35;-1.80;99.90
4922;DHT22;16625;53.624;10.106;2024-01-11T06:40:06;-1.80;99.90
4922;DHT22;16625;53.624;10.106;2024-01-11T06:42:35;-1.70;99.90
4922;DHT22;16625;53.624;10.106;2024-01-11T06:45:05;-1.70;99.90
4922;DHT22;16625;53.624;10.106;2024-01-11T06:47:32;-1.80;99.90
4922;DHT22;16625;53.624;10.106;2024-01-11T06:49:59;-1.80;99.90
4922;DHT22;16625;53.624;10.106;2024-01-11T06:52:26;-1.80;99.90
4922;DHT22;16625;53.624;10.106;2024-01-11T06:54:53;-1.70;99.90
4922;DHT22;16625;53.624;10.106;2024-01-11T06:57:20;-1.70;99.90
4922;DHT22;16625;53.624;10.106;2024-01-11T06:59:48;-1.60;99.90
4922;DHT22;16625;53.624;10.106;2024-01-11T07:02:16;-1.60;99.90
4922;DHT22;16625;53.624;10.106;2024-01-11T07:04:44;-1.60;99.90
4922;DHT22;16625;53.624;10.106;2024-01-11T07:07:11;-1.70;99.90
4922;DHT22;16625;53.624;10.106;2024-01-11T07:09:39;-1.60;99.90
4922;DHT22;16625;53.624;10.106;2024-01-11T07:12:07;-1.70;99.90
4922;DHT22;16625;53.624;10.106;2024-01-11T07:14:33;-1.60;99.90
4922;DHT22;16625;53.624;10.106;2024-01-11T07:17:02;-1.60;99.90
4922;DHT22;16625;53.624;10.106;2024-01-11T07:19:29;-1.60;99.90
4922;DHT22;16625;53.624;10.106;2024-01-11T07:21:56;-1.60;99.90
4922;DHT22;16625;53.624;10.106;2024-01-11T07:24:23;-1.50;99.90
4922;DHT22;16625;53.624;10.106;2024-01-11T07:26:50;-1.60;99.90
4922;DHT22;16625;53.624;10.106;2024-01-11T07:29:17;-1.60;99.90
4922;DHT22;16625;53.624;10.106;2024-01-11T07:31:44;-1.60;99.90
4922;DHT22;16625;53.624;10.106;2024-01-11T07:34:13;-1.50;99.90
4922;DHT22;16625;53.624;10.106;2024-01-11T07:36:40;-1.50;99.90
4922;DHT22;16625;53.624;10.106;2024-01-11T07:39:06;-1.50;99.90
4922;DHT22;16625;53.624;10.106;2024-01-11T07:41:33;-1.60;99.90
4922;DHT22;16625;53.624;10.106;2024-01-11T07:44:00;-1.50;99.90
4922;DHT22;16625;53.624;10.106;2024-01-11T07:46:27;-1.50;99.90
4922;DHT22;16625;53.624;10.106;2024-01-11T07:48:54;-1.40;99.90
4922;DHT22;16625;53.624;10.106;2024-01-11T07:51:22;-1.50;99.90
4922;DHT22;16625;53.624;10.106;2024-01-11T07:53:49;-1.40;99.90
4922;DHT22;16625;53.624;10.106;2024-01-11T07:56:17;-1.50;99.90
4922;DHT22;16625;53.624;10.106;2024-01-11T07:58:43;-1.50;99.90
4922;DHT22;16625;53.624;10.106;2024-01-11T08:01:11;-1.50;99.90
4922;DHT22;16625;53.624;10.106;2024-01-11T08:03:38;-1.50;99.90
4922;DHT22;16625;53.624;10.106;2024-01-11T08:06:07;-1.50;99.90
4922;DHT22;16625;53.624;10.106;2024-01-11T08:08:37;-1.50;99.90
4922;DHT22;16625;53.624;10.106;2024-01-11T08:11:04;-1.40;99.90
4922;DHT22;16625;53.624;10.106;2024-01-11T08:13:31;-1.40;99.90
4922;DHT22;16625;53.624;10.106;2024-01-11T08:16:00;-1.40;99.90
4922;DHT22;16625;53.624;10.106;2024-01-11T08:18:28;-0.20;99.90
4922;DHT22;16625;53.624;10.106;2024-01-11T08:20:56;-1.40;99.90
4922;DHT22;16625;53.624;10.106;2024-01-11T08:23:22;-1.30;99.90
4922;DHT22;16625;53.624;10.106;2024-01-11T08:25:51;-1.90;99.90
4922;DHT22;16625;53.624;10.106;2024-01-11T08:28:20;-1.20;99.90
4922;DHT22;16625;53.624;10.106;2024-01-11T08:30:48;-1.20;99.90
4922;DHT22;16625;53.624;10.106;2024-01-11T08:33:15;-1.10;99.90
4922;DHT22;16625;53.624;10.106;2024-01-11T08:35:41;-1.10;99.90
4922;DHT22;16625;53.624;10.106;2024-01-11T08:38:09;-1.00;99.90
4922;DHT22;16625;53.624;10.106;2024-01-11T08:40:35;-0.60;99.90
4922;DHT22;16625;53.624;10.106;2024-01-11T08:43:05;-1.00;99.90
4922;DHT22;16625;53.624;10.106;2024-01-11T08:45:32;-1.00;99.90
4922;DHT22;16625;53.624;10.106;2024-01-11T08:47:59;-0.90;99.90
4922;DHT22;16625;53.624;10.106;2024-01-11T08:50:26;-0.80;99.90
4922;DHT22;16625;53.624;10.106;2024-01-11T08:52:53;-0.80;99.90
4922;DHT22;16625;53.624;10.106;2024-01-11T08:55:22;-0.80;99.90
4922;DHT22;16625;53.624;10.106;2024-01-11T08:57:49;-0.70;99.90
4922;DHT22;16625;53.624;10.106;2024-01-11T09:00:18;-0.60;99.90
4922;DHT22;16625;53.624;10.106;2024-01-11T09:02:45;-0.60;99.90
4922;DHT22;16625;53.624;10.106;2024-01-11T09:05:14;-0.70;99.90
4922;DHT22;16625;53.624;10.106;2024-01-11T09:07:41;-0.70;99.90
4922;DHT22;16625;53.624;10.106;2024-01-11T09:10:09;-0.60;99.90
4922;DHT22;16625;53.624;10.106;2024-01-11T09:12:36;-0.50;99.90
4922;DHT22;16625;53.624;10.106;2024-01-11T09:15:03;-0.40;99.90
4922;DHT22;16625;53.624;10.106;2024-01-11T09:17:32;-0.40;99.90
4922;DHT22;16625;53.624;10.106;2024-01-11T09:19:59;-0.40;99.90
4922;DHT22;16625;53.624;10.106;2024-01-11T09:22:26;-0.40;99.90
4922;DHT22;16625;53.624;10.106;2024-01-11T09:24:54;-0.40;99.90
4922;DHT22;16625;53.624;10.106;2024-01-11T09:27:21;-0.30;99.90
4922;DHT22;16625;53.624;10.106;2024-01-11T09:29:48;-0.20;99.90
4922;DHT22;16625;53.624;10.106;2024-01-11T09:32:15;-0.20;99.90
4922;DHT22;16625;53.624;10.106;2024-01-11T09:34:45;-0.10;99.90
4922;DHT22;16625;53.624;10.106;2024-01-11T09:37:12;-0.10;99.90
4922;DHT22;16625;53.624;10.106;2024-01-11T09:39:38;0.00;99.90
4922;DHT22;16625;53.624;10.106;2024-01-11T09:42:07;-0.10;99.90
4922;DHT22;16625;53.624;10.106;2024-01-11T09:44:35;0.70;99.90
4922;DHT22;16625;53.624;10.106;2024-01-11T09:47:04;1.50;99.90
4922;DHT22;16625;53.624;10.106;2024-01-11T09:52:54;0.00;99.90
4922;DHT22;16625;53.624;10.106;2024-01-11T09:55:26;0.10;99.90
4922;DHT22;16625;53.624;10.106;2024-01-11T09:58:00;0.20;99.90
4922;DHT22;16625;53.624;10.106;2024-01-11T10:00:30;0.80;99.90
4922;DHT22;16625;53.624;10.106;2024-01-11T10:02:58;1.90;99.90
4922;DHT22;16625;53.624;10.106;2024-01-11T10:05:27;0.80;99.90
4922;DHT22;16625;53.624;10.106;2024-01-11T10:07:58;1.80;99.90
4922;DHT22;16625;53.624;10.106;2024-01-11T10:10:25;-0.10;99.90
4922;DHT22;16625;53.624;10.106;2024-01-11T10:12:54;1.00;99.90
4922;DHT22;16625;53.624;10.106;2024-01-11T10:15:24;0.90;99.90
4922;DHT22;16625;53.624;10.106;2024-01-11T10:17:52;0.30;99.90
4922;DHT22;16625;53.624;10.106;2024-01-11T10:20:19;2.00;99.90
4922;DHT22;16625;53.624;10.106;2024-01-11T10:22:49;0.40;99.90
4922;DHT22;16625;53.624;10.106;2024-01-11T10:25:20;0.20;99.90
4922;DHT22;16625;53.624;10.106;2024-01-11T10:27:47;0.30;99.90
4922;DHT22;16625;53.624;10.106;2024-01-11T10:30:16;0.40;99.90
4922;DHT22;16625;53.624;10.106;2024-01-11T10:32:49;1.50;99.90
4922;DHT22;16625;53.624;10.106;2024-01-11T10:35:18;0.50;99.90
4922;DHT22;16625;53.624;10.106;2024-01-11T10:37:50;0.90;99.90
4922;DHT22;16625;53.624;10.106;2024-01-11T10:40:24;1.30;99.90
4922;DHT22;16625;53.624;10.106;2024-01-11T10:42:52;1.60;99.90
4922;DHT22;16625;53.624;10.106;2024-01-11T10:45:20;1.30;99.90
4922;DHT22;16625;53.624;10.106;2024-01-11T10:47:54;1.70;99.90
4922;DHT22;16625;53.624;10.106;2024-01-11T10:50:23;0.80;99.90
4922;DHT22;16625;53.624;10.106;2024-01-11T10:53:02;0.80;99.90
4922;DHT22;16625;53.624;10.106;2024-01-11T10:55:34;1.90;99.90
4922;DHT22;16625;53.624;10.106;2024-01-11T10:58:02;0.80;99.90
4922;DHT22;16625;53.624;10.106;2024-01-11T11:00:31;0.80;99.90
4922;DHT22;16625;53.624;10.106;2024-01-11T11:03:00;2.70;99.90
4922;DHT22;16625;53.624;10.106;2024-01-11T11:05:28;1.50;99.90
4922;DHT22;16625;53.624;10.106;2024-01-11T11:07:58;1.20;99.90
4922;DHT22;16625;53.624;10.106;2024-01-11T11:10:27;0.80;99.90
4922;DHT22;16625;53.624;10.106;2024-01-11T11:12:59;2.30;99.90
4922;DHT22;16625;53.624;10.106;2024-01-11T11:15:28;0.60;99.90
4922;DHT22;16625;53.624;10.106;2024-01-11T11:17:55;2.20;99.90
4922;DHT22;16625;53.624;10.106;2024-01-11T11:20:23;1.20;99.90
4922;DHT22;16625;53.624;10.106;2024-01-11T11:23:03;1.50;99.90
4922;DHT22;16625;53.624;10.106;2024-01-11T11:25:31;1.40;99.90
4922;DHT22;16625;53.624;10.106;2024-01-11T11:28:05;1.60;99.90
4922;DHT22;16625;53.624;10.106;2024-01-11T11:30:33;0.80;99.90
4922;DHT22;16625;53.624;10.106;2024-01-11T11:35:36;0.90;99.90
4922;DHT22;16625;53.624;10.106;2024-01-11T11:38:05;2.20;99.90
4922;DHT22;16625;53.624;10.106;2024-01-11T11:40:36;1.00;99.90
4922;DHT22;16625;53.624;10.106;2024-01-11T11:43:07;1.20;99.90
4922;DHT22;16625;53.624;10.106;2024-01-11T11:45:34;1.90;99.90
4922;DHT22;16625;53.624;10.106;2024-01-11T11:51:10;1.10;99.90
4922;DHT22;16625;53.624;10.106;2024-01-11T11:53:40;1.20;99.90
4922;DHT22;16625;53.624;10.106;2024-01-11T11:56:08;1.20;99.90
4922;DHT22;16625;53.624;10.106;2024-01-11T11:58:38;1.10;99.90
4922;DHT22;16625;53.624;10.106;2024-01-11T12:01:05;1.00;99.90
4922;DHT22;16625;53.624;10.106;2024-01-11T12:03:35;0.90;99.90
4922;DHT22;16625;53.624;10.106;2024-01-11T12:06:06;1.00;99.90
4922;DHT22;16625;53.624;10.106;2024-01-11T12:08:34;1.10;99.90
4922;DHT22;16625;53.624;10.106;2024-01-11T12:11:02;2.20;99.90
4922;DHT22;16625;53.624;10.106;2024-01-11T12:13:32;1.10;99.90
4922;DHT22;16625;53.624;10.106;2024-01-11T12:16:01;1.20;99.90
4922;DHT22;16625;53.624;10.106;2024-01-11T12:18:28;1.20;99.90
4922;DHT22;16625;53.624;10.106;2024-01-11T12:20:56;1.40;99.90
4922;DHT22;16625;53.624;10.106;2024-01-11T12:23:23;1.20;99.90
4922;DHT22;16625;53.624;10.106;2024-01-11T12:25:50;1.30;99.90
4922;DHT22;16625;53.624;10.106;2024-01-11T12:28:18;1.30;99.90
4922;DHT22;16625;53.624;10.106;2024-01-11T12:30:46;1.50;99.90
4922;DHT22;16625;53.624;10.106;2024-01-11T12:33:18;1.40;99.90
4922;DHT22;16625;53.624;10.106;2024-01-11T12:35:46;2.50;99.90
4922;DHT22;16625;53.624;10.106;2024-01-11T12:38:13;1.50;99.90
4922;DHT22;16625;53.624;10.106;2024-01-11T12:40:41;1.50;99.90
4922;DHT22;16625;53.624;10.106;2024-01-11T12:43:10;3.30;99.90
4922;DHT22;16625;53.624;10.106;2024-01-11T12:45:39;1.50;99.90
4922;DHT22;16625;53.624;10.106;2024-01-11T12:48:09;2.70;99.90
4922;DHT22;16625;53.624;10.106;2024-01-11T12:50:41;1.60;99.90
4922;DHT22;16625;53.624;10.106;2024-01-11T12:53:09;2.30;99.90
4922;DHT22;16625;53.624;10.106;2024-01-11T12:55:38;3.00;99.90
4922;DHT22;16625;53.624;10.106;2024-01-11T12:58:06;2.50;99.90
4922;DHT22;16625;53.624;10.106;2024-01-11T13:00:33;1.70;99.90
4922;DHT22;16625;53.624;10.106;2024-01-11T13:03:00;2.40;99.90
4922;DHT22;16625;53.624;10.106;2024-01-11T13:05:27;1.70;99.90
4922;DHT22;16625;53.624;10.106;2024-01-11T13:08:22;2.40;99.90
4922;DHT22;16625;53.624;10.106;2024-01-11T13:10:49;2.20;99.90
4922;DHT22;16625;53.624;10.106;2024-01-11T13:13:19;1.70;99.90
4922;DHT22;16625;53.624;10.106;2024-01-11T13:16:06;1.70;99.90
4922;DHT22;16625;53.624;10.106;2024-01-11T13:18:46;1.70;99.90
4922;DHT22;16625;53.624;10.106;2024-01-11T13:21:16;1.80;99.90
4922;DHT22;16625;53.624;10.106;2024-01-11T13:23:57;3.40;99.90
4922;DHT22;16625;53.624;10.106;2024-01-11T13:26:28;1.70;99.90
4922;DHT22;16625;53.624;10.106;2024-01-11T13:28:55;3.50;99.90
4922;DHT22;16625;53.624;10.106;2024-01-11T13:31:22;3.60;99.90
4922;DHT22;16625;53.624;10.106;2024-01-11T13:33:50;2.60;99.90
4922;DHT22;16625;53.624;10.106;2024-01-11T13:36:18;3.10;99.90
4922;DHT22;16625;53.624;10.106;2024-01-11T13:38:57;2.10;99.90
4922;DHT22;16625;53.624;10.106;2024-01-11T13:41:26;3.00;99.90
4922;DHT22;16625;53.624;10.106;2024-01-11T13:43:53;3.70;99.90
4922;DHT22;16625;53.624;10.106;2024-01-11T13:46:21;3.10;99.90
4922;DHT22;16625;53.624;10.106;2024-01-11T13:48:50;1.90;99.90
4922;DHT22;16625;53.624;10.106;2024-01-11T13:51:17;2.90;99.90
4922;DHT22;16625;53.624;10.106;2024-01-11T13:53:54;2.60;99.90
4922;DHT22;16625;53.624;10.106;2024-01-11T13:56:25;3.40;99.90
4922;DHT22;16625;53.624;10.106;2024-01-11T13:58:56;3.20;99.90
4922;DHT22;16625;53.624;10.106;2024-01-11T14:01:23;1.90;99.90
4922;DHT22;16625;53.624;10.106;2024-01-11T14:03:51;3.70;99.90
4922;DHT22;16625;53.624;10.106;2024-01-11T14:06:19;3.40;99.90
4922;DHT22;16625;53.624;10.106;2024-01-11T14:08:51;3.60;99.90
4922;DHT22;16625;53.624;10.106;2024-01-11T14:11:20;3.50;99.90
4922;DHT22;16625;53.624;10.106;2024-01-11T14:13:52;1.80;99.90
4922;DHT22;16625;53.624;10.106;2024-01-11T14:16:36;3.60;99.90
4922;DHT22;16625;53.624;10.106;2024-01-11T14:19:06;2.80;99.90
4922;DHT22;16625;53.624;10.106;2024-01-11T14:22:08;1.90;99.90
4922;DHT22;16625;53.624;10.106;2024-01-11T14:25:04;3.60;99.90
4922;DHT22;16625;53.624;10.106;2024-01-11T14:27:31;1.90;99.90
4922;DHT22;16625;53.624;10.106;2024-01-11T16:31:45;0.60;99.90
4922;DHT22;16625;53.624;10.106;2024-01-11T16:34:11;0.50;99.90
4922;DHT22;16625;53.624;10.106;2024-01-11T16:36:40;0.50;99.90
4922;DHT22;16625;53.624;10.106;2024-01-11T16:39:07;0.30;99.90
4922;DHT22;16625;53.624;10.106;2024-01-11T16:41:35;0.30;99.90
4922;DHT22;16625;53.624;10.106;2024-01-11T16:44:03;0.10;99.90
4922;DHT22;16625;53.624;10.106;2024-01-11T16:46:30;0.00;99.90
4922;DHT22;16625;53.624;10.106;2024-01-11T16:48:58;-0.20;99.90
4922;DHT22;16625;53.624;10.106;2024-01-11T16:51:26;-0.30;99.90
4922;DHT22;16625;53.624;10.106;2024-01-11T16:53:53;-0.40;99.90
4922;DHT22;16625;53.624;10.106;2024-01-11T16:56:21;-0.50;99.90
4922;DHT22;16625;53.624;10.106;2024-01-11T16:58:48;-0.50;99.90
4922;DHT22;16625;53.624;10.106;2024-01-11T17:01:15;-0.60;99.90
4922;DHT22;16625;53.624;10.106;2024-01-11T17:03:41;-0.60;99.90
4922;DHT22;16625;53.624;10.106;2024-01-11T17:06:10;-0.70;99.90
4922;DHT22;16625;53.624;10.106;2024-01-11T17:08:36;-0.80;99.90
4922;DHT22;16625;53.624;10.106;2024-01-11T17:11:03;-0.90;99.90
4922;DHT22;16625;53.624;10.106;2024-01-11T17:13:30;-0.90;99.90
4922;DHT22;16625;53.624;10.106;2024-01-11T17:15:57;-0.80;99.90
4922;DHT22;16625;53.624;10.106;2024-01-11T17:18:24;-0.70;99.90
4922;DHT22;16625;53.624;10.106;2024-01-11T17:20:51;-0.70;99.90
4922;DHT22;16625;53.624;10.106;2024-01-11T17:23:19;-0.80;99.90
4922;DHT22;16625;53.624;10.106;2024-01-11T17:25:46;-0.90;99.90
4922;DHT22;16625;53.624;10.106;2024-01-11T17:28:13;-0.40;99.90
4922;DHT22;16625;53.624;10.106;2024-01-11T17:30:39;-1.10;99.90
4922;DHT22;16625;53.624;10.106;2024-01-11T17:33:06;-1.20;99.90
4922;DHT22;16625;53.624;10.106;2024-01-11T17:35:34;-1.20;99.90
4922;DHT22;16625;53.624;10.106;2024-01-11T17:38:01;-1.20;99.90
4922;DHT22;16625;53.624;10.106;2024-01-11T17:40:30;-1.30;99.90
4922;DHT22;16625;53.624;10.106;2024-01-11T17:43:00;-1.20;99.90
4922;DHT22;16625;53.624;10.106;2024-01-11T17:45:27;-1.20;99.90
4922;DHT22;16625;53.624;10.106;2024-01-11T17:47:56;-1.20;99.90
4922;DHT22;16625;53.624;10.106;2024-01-11T17:50:23;-1.20;99.90
4922;DHT22;16625;53.624;10.106;2024-01-11T17:52:50;-1.30;99.90
4922;DHT22;16625;53.624;10.106;2024-01-11T17:55:17;-1.30;99.90